Time;durP1;ratioP1;P1;durP2;ratioP2;P2;SDS_P1;SDS_P2;PMS_P1;PMS_P2;Temp;Humidity;BMP_temperature;BMP_pressure;BME280_temperature;BME280_humidity;BME280_pressure;Samples;Min_cycle;Max_cycle;Signal;HPM_P1;HPM_P2
2024/04/13 00:00:10;;;;;;;;;;;23.00;46.50;;;;;;3051806;19;4573;-31
2024/04/13 00:01:10;;;;;;;;;;;23.00;46.60;;;;;;3028622;19;4786;-34
2024/04/13 00:02:11;;;;;;;;;;;22.90;46.50;;;;;;3054335;19;4791;-32
2024/04/13 00:03:11;;;;;;;;;;;22.90;46.50;;;;;;3054386;19;4750;-30
2024/04/13 00:04:12;;;;;;;;;;;22.90;46.80;;;;;;3033842;19;4509;-29
2024/04/13 00:05:13;;;;;;;;;;;22.90;46.50;;;;;;3054457;19;4786;-32
2024/04/13 00:06:13;;;;;;;;;;;22.90;46.40;;;;;;3051170;19;5024;-34
2024/04/13 00:07:14;;;;;;;;;;;22.90;46.50;;;;;;3030074;19;19818;-34
2024/04/13 00:08:16;;;;;;;;;;;22.90;46.50;;;;;;3052665;19;4697;-32
2024/04/13 00:09:17;;;;;;;;;;;22.90;46.40;;;;;;3032149;19;4676;-32
2024/04/13 00:10:17;;;;;;;;;;;22.90;46.50;;;;;;3053904;19;4763;-31
2024/04/13 00:11:18;;;;;;;;;;;22.90;46.50;;;;;;3053330;19;4745;-33
2024/04/13 00:12:18;;;;;;;;;;;22.90;46.40;;;;;;3031951;19;4640;-31
2024/04/13 00:13:19;;;;;;;;;;;22.90;46.40;;;;;;3054331;19;4657;-33
2024/04/13 00:14:20;;;;;;;;;;;22.90;46.40;;;;;;3031106;19;4711;-32
2024/04/13 00:15:20;;;;;;;;;;;22.90;46.40;;;;;;3052850;19;4667;-35
2024/04/13 00:16:21;;;;;;;;;;;22.90;46.40;;;;;;3053412;19;4684;-33
2024/04/13 00:17:22;;;;;;;;;;;22.90;46.40;;;;;;3031861;19;4606;-35
2024/04/13 00:18:23;;;;;;;;;;;22.90;46.30;;;;;;3055282;19;4645;-35
2024/04/13 00:19:23;;;;;;;;;;;22.90;46.30;;;;;;3054986;19;4753;-30
2024/04/13 00:20:24;;;;;;;;;;;22.90;46.30;;;;;;3033034;19;4631;-35
2024/04/13 00:21:24;;;;;;;;;;;22.80;46.30;;;;;;3053115;19;4905;-30
2024/04/13 00:22:25;;;;;;;;;;;22.80;46.30;;;;;;3031922;19;4726;-32
2024/04/13 00:23:26;;;;;;;;;;;22.80;46.30;;;;;;3052843;19;4728;-31
2024/04/13 00:24:26;;;;;;;;;;;22.80;46.40;;;;;;3054630;19;4703;-33
2024/04/13 00:25:30;;;;;;;;;;;22.80;46.30;;;;;;3031778;19;4533;-31
2024/04/13 00:26:32;;;;;;;;;;;22.80;46.20;;;;;;3053273;19;4704;-33
2024/04/13 00:27:33;;;;;;;;;;;22.80;46.20;;;;;;3054665;19;4688;-35
2024/04/13 00:28:33;;;;;;;;;;;22.80;46.20;;;;;;3032962;19;4671;-34
2024/04/13 00:29:34;;;;;;;;;;;22.80;46.20;;;;;;3054853;19;4661;-32
2024/04/13 00:30:35;;;;;;;;;;;22.80;46.20;;;;;;3033550;19;4671;-33
2024/04/13 00:31:35;;;;;;;;;;;22.80;46.10;;;;;;3053915;19;4718;-30
2024/04/13 00:32:36;;;;;;;;;;;22.80;46.10;;;;;;3054713;19;4616;-32
2024/04/13 00:33:38;;;;;;;;;;;22.80;46.10;;;;;;3031506;19;4809;-34
2024/04/13 00:34:39;;;;;;;;;;;22.80;46.30;;;;;;3054526;19;4701;-32
2024/04/13 00:35:40;;;;;;;;;;;22.80;46.10;;;;;;3033076;19;4591;-34
2024/04/13 00:36:40;;;;;;;;;;;22.80;46.10;;;;;;3051663;19;5160;-30
2024/04/13 00:37:41;;;;;;;;;;;22.80;46.10;;;;;;3054596;19;4615;-32
2024/04/13 00:38:41;;;;;;;;;;;22.80;46.10;;;;;;3032380;19;4731;-33
2024/04/13 00:39:42;;;;;;;;;;;22.80;46.10;;;;;;3054552;19;4600;-34
2024/04/13 00:40:43;;;;;;;;;;;22.80;46.10;;;;;;3052018;19;4676;-32
2024/04/13 00:41:43;;;;;;;;;;;22.80;46.50;;;;;;3031955;19;4482;-33
2024/04/13 00:42:44;;;;;;;;;;;22.80;46.10;;;;;;3053969;19;4708;-31
2024/04/13 00:43:45;;;;;;;;;;;22.70;46.10;;;;;;3032417;19;4626;-32
2024/04/13 00:44:46;;;;;;;;;;;22.70;46.00;;;;;;3052988;19;4834;-34
2024/04/13 00:45:47;;;;;;;;;;;22.80;46.10;;;;;;3053522;19;4709;-25
2024/04/13 00:46:48;;;;;;;;;;;22.70;46.10;;;;;;3032735;19;4664;-24
2024/04/13 00:47:49;;;;;;;;;;;22.70;46.10;;;;;;3054570;19;4618;-26
2024/04/13 00:48:50;;;;;;;;;;;22.70;46.10;;;;;;3054100;19;4700;-25
2024/04/13 00:49:50;;;;;;;;;;;22.70;46.10;;;;;;3032708;19;4498;-24
2024/04/13 00:50:54;;;;;;;;;;;22.70;46.10;;;;;;3050844;19;4814;-25
2024/04/13 00:51:56;;;;;;;;;;;22.70;46.10;;;;;;3032004;19;4679;-26
2024/04/13 00:52:56;;;;;;;;;;;22.70;46.10;;;;;;3053780;19;4675;-25
2024/04/13 00:53:57;;;;;;;;;;;22.70;46.00;;;;;;3051192;19;4594;-24
2024/04/13 00:54:58;;;;;;;;;;;22.70;46.00;;;;;;3031027;19;4641;-24
2024/04/13 00:56:00;;;;;;;;;;;22.70;46.00;;;;;;3054372;19;4583;-34
2024/04/13 00:57:02;;;;;;;;;;;22.70;46.10;;;;;;3031464;19;4616;-31
2024/04/13 00:58:02;;;;;;;;;;;22.70;46.00;;;;;;3054274;19;4604;-30
2024/04/13 00:59:06;;;;;;;;;;;22.70;46.00;;;;;;3052994;19;4558;-32
2024/04/13 01:00:11;;;;;;;;;;;22.70;46.00;;;;;;3032330;19;4561;-32
2024/04/13 01:01:13;;;;;;;;;;;22.70;46.00;;;;;;3050737;19;4698;-30
2024/04/13 01:02:14;;;;;;;;;;;22.70;46.00;;;;;;3051528;19;4703;-31
2024/04/13 01:03:15;;;;;;;;;;;22.70;46.00;;;;;;3050858;19;4647;-31
2024/04/13 01:04:17;;;;;;;;;;;22.60;45.90;;;;;;3053540;19;4867;-31
2024/04/13 01:05:18;;;;;;;;;;;22.70;45.90;;;;;;3030802;19;4686;-34
2024/04/13 01:06:19;;;;;;;;;;;22.60;46.00;;;;;;3051444;19;4881;-33
2024/04/13 01:07:19;;;;;;;;;;;22.60;46.00;;;;;;3053851;19;4796;-35
2024/04/13 01:08:20;;;;;;;;;;;22.60;45.90;;;;;;3032002;19;4583;-31
2024/04/13 01:09:23;;;;;;;;;;;22.60;45.90;;;;;;3053213;19;4704;-33
2024/04/13 01:10:23;;;;;;;;;;;22.60;45.90;;;;;;3032112;19;4852;-33
2024/04/13 01:11:24;;;;;;;;;;;22.60;46.00;;;;;;3052988;19;4690;-34
2024/04/13 01:12:26;;;;;;;;;;;22.60;45.90;;;;;;3053331;19;4695;-32
2024/04/13 01:13:27;;;;;;;;;;;22.60;45.90;;;;;;3031236;19;4497;-32
2024/04/13 01:14:28;;;;;;;;;;;22.60;46.00;;;;;;3051646;19;4814;-33
2024/04/13 01:15:29;;;;;;;;;;;22.60;45.90;;;;;;3052769;19;4568;-33
2024/04/13 01:16:30;;;;;;;;;;;22.60;45.90;;;;;;3032491;19;4674;-37
2024/04/13 01:17:30;;;;;;;;;;;22.60;45.90;;;;;;3052465;19;4828;-30
2024/04/13 01:18:31;;;;;;;;;;;22.60;45.90;;;;;;3031273;19;4682;-33
2024/04/13 01:19:32;;;;;;;;;;;22.60;45.90;;;;;;3053938;19;4678;-31
2024/04/13 01:20:35;;;;;;;;;;;22.60;45.90;;;;;;3051909;19;4547;-31
2024/04/13 01:21:36;;;;;;;;;;;22.60;45.90;;;;;;3029220;19;4930;-33
2024/04/13 01:22:41;;;;;;;;;;;22.60;45.90;;;;;;3053660;19;4625;-32
2024/04/13 01:23:44;;;;;;;;;;;22.50;45.90;;;;;;3032606;19;4612;-31
2024/04/13 01:24:44;;;;;;;;;;;22.50;45.90;;;;;;3052050;19;4668;-34
2024/04/13 01:25:45;;;;;;;;;;;22.50;45.90;;;;;;3052931;19;4714;-32
2024/04/13 01:26:45;;;;;;;;;;;22.50;45.90;;;;;;3031553;19;4703;-31
2024/04/13 01:27:47;;;;;;;;;;;22.50;45.90;;;;;;3053992;19;4591;-32
2024/04/13 01:28:47;;;;;;;;;;;22.50;45.90;;;;;;3052915;19;4636;-31
2024/04/13 01:29:48;;;;;;;;;;;22.50;46.00;;;;;;3030561;19;4606;-30
2024/04/13 01:30:50;;;;;;;;;;;22.50;45.90;;;;;;3053769;19;4737;-33
2024/04/13 01:31:50;;;;;;;;;;;22.50;46.00;;;;;;3031475;19;4601;-34
2024/04/13 01:32:51;;;;;;;;;;;22.50;45.90;;;;;;3053467;19;4776;-31
2024/04/13 01:33:52;;;;;;;;;;;22.50;45.90;;;;;;3053593;19;4690;-34
2024/04/13 01:34:52;;;;;;;;;;;22.50;45.90;;;;;;3031907;19;4590;-32
2024/04/13 01:35:58;;;;;;;;;;;22.50;45.90;;;;;;3053445;19;4661;-35
2024/04/13 01:36:58;;;;;;;;;;;22.50;45.90;;;;;;3031127;19;4573;-31
2024/04/13 01:37:59;;;;;;;;;;;22.40;45.90;;;;;;3053518;19;4615;-35
2024/04/13 01:39:00;;;;;;;;;;;22.50;45.90;;;;;;3052770;19;4644;-30
2024/04/13 01:40:00;;;;;;;;;;;22.40;45.90;;;;;;3031276;19;4624;-30
2024/04/13 01:41:01;;;;;;;;;;;22.50;45.90;;;;;;3052916;19;4670;-30
2024/04/13 01:42:02;;;;;;;;;;;22.40;45.90;;;;;;3053616;19;4560;-34
2024/04/13 01:43:02;;;;;;;;;;;22.40;45.90;;;;;;3030794;19;4611;-32
2024/04/13 01:44:03;;;;;;;;;;;22.40;45.90;;;;;;3049679;19;4659;-32
2024/04/13 01:45:04;;;;;;;;;;;22.40;45.90;;;;;;3030502;19;4607;-35
2024/04/13 01:46:05;;;;;;;;;;;22.40;45.90;;;;;;3052605;19;4645;-33
2024/04/13 01:47:06;;;;;;;;;;;22.40;45.90;;;;;;3051098;19;4673;-28
2024/04/13 01:48:06;;;;;;;;;;;22.40;45.90;;;;;;3032374;19;4723;-33
2024/04/13 01:49:07;;;;;;;;;;;22.40;45.80;;;;;;3053443;19;4707;-32
2024/04/13 01:50:08;;;;;;;;;;;22.40;45.90;;;;;;3053956;19;4690;-34
2024/04/13 01:51:08;;;;;;;;;;;22.40;45.80;;;;;;3032264;19;4304;-30
2024/04/13 01:52:10;;;;;;;;;;;22.40;45.90;;;;;;3050673;19;5129;-35
2024/04/13 01:53:11;;;;;;;;;;;22.40;45.90;;;;;;3031027;19;4534;-34
2024/04/13 01:54:11;;;;;;;;;;;22.40;45.90;;;;;;3052464;19;4774;-31
2024/04/13 01:55:12;;;;;;;;;;;22.40;46.50;;;;;;3052392;19;4731;-34
2024/04/13 01:56:12;;;;;;;;;;;22.40;45.90;;;;;;3032174;19;4602;-31
2024/04/13 01:57:13;;;;;;;;;;;22.40;45.90;;;;;;3050317;19;4767;-33
2024/04/13 01:58:14;;;;;;;;;;;22.40;45.80;;;;;;3048337;19;4672;-30
2024/04/13 01:59:16;;;;;;;;;;;22.40;45.80;;;;;;3046204;19;1273;-31
2024/04/13 02:00:16;;;;;;;;;;;22.30;45.80;;;;;;3052678;19;4621;-33
2024/04/13 02:01:17;;;;;;;;;;;22.30;45.80;;;;;;3028202;19;4708;-33
2024/04/13 02:02:19;;;;;;;;;;;22.40;45.80;;;;;;3050051;19;4795;-34
2024/04/13 02:03:19;;;;;;;;;;;22.40;45.80;;;;;;3053006;19;5146;-32
2024/04/13 02:04:20;;;;;;;;;;;22.30;46.50;;;;;;3031697;19;4671;-30
2024/04/13 02:05:21;;;;;;;;;;;22.30;45.80;;;;;;3052820;19;4834;-30
2024/04/13 02:06:22;;;;;;;;;;;22.30;45.80;;;;;;3032265;19;4682;-27
2024/04/13 02:07:23;;;;;;;;;;;22.30;45.80;;;;;;3051198;19;4892;-24
2024/04/13 02:08:23;;;;;;;;;;;22.40;45.90;;;;;;3053545;19;4722;-24
2024/04/13 02:09:24;;;;;;;;;;;22.40;45.90;;;;;;3031321;19;4579;-23
2024/04/13 02:10:24;;;;;;;;;;;22.30;45.80;;;;;;3053215;19;4698;-24
2024/04/13 02:11:26;;;;;;;;;;;22.30;45.80;;;;;;3053370;19;4708;-26
2024/04/13 02:12:27;;;;;;;;;;;22.30;45.80;;;;;;3030798;19;4601;-26
2024/04/13 02:13:28;;;;;;;;;;;22.30;45.80;;;;;;3051946;19;4765;-25
2024/04/13 02:14:29;;;;;;;;;;;22.30;45.80;;;;;;3029781;19;4911;-24
2024/04/13 02:15:29;;;;;;;;;;;22.40;45.90;;;;;;3051602;19;4770;-24
2024/04/13 02:16:30;;;;;;;;;;;22.30;45.70;;;;;;3053294;19;4691;-32
2024/04/13 02:17:31;;;;;;;;;;;22.30;45.80;;;;;;3031303;19;4514;-31
2024/04/13 02:18:31;;;;;;;;;;;22.30;45.70;;;;;;3051198;19;4826;-31
2024/04/13 02:19:33;;;;;;;;;;;22.30;45.80;;;;;;3053635;19;4606;-32
2024/04/13 02:20:34;;;;;;;;;;;22.30;45.80;;;;;;3032103;19;4628;-34
2024/04/13 02:21:35;;;;;;;;;;;22.30;45.70;;;;;;3051737;19;4742;-30
2024/04/13 02:22:36;;;;;;;;;;;22.30;45.80;;;;;;3030048;19;4700;-33
2024/04/13 02:23:36;;;;;;;;;;;22.30;45.80;;;;;;3051766;19;4807;-33
2024/04/13 02:24:39;;;;;;;;;;;22.30;45.70;;;;;;3051270;19;4808;-34
2024/04/13 02:25:47;;;;;;;;;;;22.30;45.70;;;;;;3029387;19;4554;-30
2024/04/13 02:26:48;;;;;;;;;;;22.20;45.70;;;;;;3052824;19;4741;-26
2024/04/13 02:27:49;;;;;;;;;;;22.20;45.70;;;;;;3031368;19;4611;-23
2024/04/13 02:28:49;;;;;;;;;;;22.20;45.80;;;;;;3052611;19;4658;-25
2024/04/13 02:29:50;;;;;;;;;;;22.30;45.70;;;;;;3053279;19;4649;-25
2024/04/13 02:30:51;;;;;;;;;;;22.20;45.70;;;;;;3030348;19;4852;-24
2024/04/13 02:31:51;;;;;;;;;;;22.20;45.60;;;;;;3050290;19;5054;-24
2024/04/13 02:32:52;;;;;;;;;;;22.20;45.60;;;;;;3052972;19;4707;-25
2024/04/13 02:33:52;;;;;;;;;;;22.20;45.60;;;;;;3030166;19;4622;-26
2024/04/13 02:34:55;;;;;;;;;;;22.30;45.60;;;;;;3051930;19;4704;-24
2024/04/13 02:36:03;;;;;;;;;;;22.30;45.40;;;;;;3031268;19;4679;-27
2024/04/13 02:37:03;;;;;;;;;;;22.30;45.20;;;;;;3050613;19;4889;-26
2024/04/13 02:38:04;;;;;;;;;;;22.40;45.10;;;;;;3052396;19;4622;-24
2024/04/13 02:39:07;;;;;;;;;;;22.50;45.00;;;;;;3030834;19;4554;-25
2024/04/13 02:40:09;;;;;;;;;;;22.60;44.80;;;;;;3052071;19;4698;-24
2024/04/13 02:41:09;;;;;;;;;;;22.70;44.70;;;;;;3031158;19;4766;-25
2024/04/13 02:42:10;;;;;;;;;;;22.70;44.50;;;;;;3050924;19;4692;-24
2024/04/13 02:43:11;;;;;;;;;;;22.80;44.40;;;;;;3052034;19;4815;-24
2024/04/13 02:44:11;;;;;;;;;;;22.80;44.20;;;;;;3029173;19;4753;-26
2024/04/13 02:45:14;;;;;;;;;;;22.90;44.10;;;;;;3051217;19;4749;-26
2024/04/13 02:46:16;;;;;;;;;;;22.90;44.00;;;;;;3041194;19;4652;-24
2024/04/13 02:47:17;;;;;;;;;;;22.90;44.60;;;;;;3052511;19;4693;-26
2024/04/13 02:48:19;;;;;;;;;;;22.90;43.90;;;;;;3051348;19;4722;-24
2024/04/13 02:49:20;;;;;;;;;;;22.90;43.80;;;;;;3030904;19;4536;-23
2024/04/13 02:50:21;;;;;;;;;;;22.90;43.90;;;;;;3052110;19;4648;-25
2024/04/13 02:51:21;;;;;;;;;;;22.90;43.80;;;;;;3053237;19;4680;-24
2024/04/13 02:52:22;;;;;;;;;;;22.90;43.80;;;;;;3028829;19;4618;-25
2024/04/13 02:53:22;;;;;;;;;;;23.00;43.80;;;;;;3050523;19;4753;-26
2024/04/13 02:54:23;;;;;;;;;;;23.00;43.70;;;;;;3029692;19;4739;-23
2024/04/13 02:55:24;;;;;;;;;;;23.10;43.60;;;;;;3050389;19;4699;-24
2024/04/13 02:56:24;;;;;;;;;;;23.10;43.40;;;;;;3051587;19;4695;-24
2024/04/13 02:57:25;;;;;;;;;;;23.10;43.40;;;;;;3029039;19;4611;-24
2024/04/13 02:58:26;;;;;;;;;;;23.10;43.20;;;;;;3052442;19;4721;-24
2024/04/13 02:59:28;;;;;;;;;;;23.10;43.20;;;;;;3052615;19;4722;-24
2024/04/13 03:00:29;;;;;;;;;;;23.10;43.10;;;;;;3031302;19;4648;-24
2024/04/13 03:01:30;;;;;;;;;;;23.20;43.10;;;;;;3052019;19;4696;-24
2024/04/13 03:02:30;;;;;;;;;;;23.20;43.10;;;;;;3030917;19;4917;-24
2024/04/13 03:03:31;;;;;;;;;;;23.20;43.10;;;;;;3052325;19;4685;-24
2024/04/13 03:04:32;;;;;;;;;;;23.20;43.00;;;;;;3051609;19;4711;-24
2024/04/13 03:05:32;;;;;;;;;;;23.20;43.00;;;;;;3031026;19;4644;-24
2024/04/13 03:06:33;;;;;;;;;;;23.20;43.10;;;;;;3051103;19;4731;-24
2024/04/13 03:07:34;;;;;;;;;;;23.10;43.00;;;;;;3052472;19;4703;-25
2024/04/13 03:08:35;;;;;;;;;;;23.20;43.00;;;;;;3041529;19;4784;-24
2024/04/13 03:09:35;;;;;;;;;;;23.10;42.90;;;;;;3052115;19;4694;-24
2024/04/13 03:10:36;;;;;;;;;;;23.20;42.90;;;;;;3031225;19;4760;-24
2024/04/13 03:11:36;;;;;;;;;;;23.10;42.90;;;;;;3052579;19;4818;-24
2024/04/13 03:12:37;;;;;;;;;;;23.10;42.90;;;;;;3052888;19;4678;-24
2024/04/13 03:13:38;;;;;;;;;;;22.60;42.60;;;;;;3029384;19;4662;-24
2024/04/13 03:14:38;;;;;;;;;;;23.10;42.90;;;;;;3049486;19;4670;-24
2024/04/13 03:15:39;;;;;;;;;;;23.10;43.00;;;;;;3029785;19;4659;-25
2024/04/13 03:16:40;;;;;;;;;;;23.10;42.90;;;;;;3051930;19;4719;-27
2024/04/13 03:17:40;;;;;;;;;;;23.10;42.90;;;;;;3052189;19;4724;-25
2024/04/13 03:18:44;;;;;;;;;;;23.10;42.90;;;;;;3030590;19;4690;-24
2024/04/13 03:19:45;;;;;;;;;;;23.10;43.00;;;;;;3052153;19;5314;-24
2024/04/13 03:20:46;;;;;;;;;;;23.10;43.00;;;;;;3049893;19;4985;-23
2024/04/13 03:21:47;;;;;;;;;;;23.10;42.90;;;;;;3030454;19;4689;-23
2024/04/13 03:22:47;;;;;;;;;;;23.10;42.90;;;;;;3052256;19;4647;-24
2024/04/13 03:23:48;;;;;;;;;;;23.10;43.00;;;;;;3030515;19;4693;-25
2024/04/13 03:24:49;;;;;;;;;;;23.10;43.60;;;;;;3052570;19;4603;-23
2024/04/13 03:25:50;;;;;;;;;;;23.10;42.90;;;;;;3052491;19;4739;-24
2024/04/13 03:26:51;;;;;;;;;;;23.10;42.90;;;;;;3029433;19;4676;-34
2024/04/13 03:27:51;;;;;;;;;;;23.10;43.00;;;;;;3050114;19;4722;-31
2024/04/13 03:28:52;;;;;;;;;;;23.10;43.00;;;;;;3051470;19;4644;-31
2024/04/13 03:29:52;;;;;;;;;;;23.10;43.00;;;;;;3029894;19;4674;-33
2024/04/13 03:30:53;;;;;;;;;;;23.10;43.00;;;;;;3051284;19;4698;-31
2024/04/13 03:31:54;;;;;;;;;;;23.10;43.00;;;;;;3030485;19;4631;-32
2024/04/13 03:32:54;;;;;;;;;;;23.00;42.90;;;;;;3051535;19;4648;-33
2024/04/13 03:33:58;;;;;;;;;;;23.10;43.00;;;;;;3050672;19;4671;-34
2024/04/13 03:34:59;;;;;;;;;;;23.00;43.70;;;;;;3029533;19;4666;-31
2024/04/13 03:36:04;;;;;;;;;;;23.00;43.00;;;;;;3052008;19;4742;-33
2024/04/13 03:37:07;;;;;;;;;;;23.00;43.10;;;;;;3031287;19;4675;-35
2024/04/13 03:38:08;;;;;;;;;;;23.00;43.10;;;;;;3054667;19;4440;-34
2024/04/13 03:39:08;;;;;;;;;;;23.00;43.10;;;;;;3053141;19;4678;-32
2024/04/13 03:40:13;;;;;;;;;;;23.10;43.00;;;;;;3032144;19;4597;-31
2024/04/13 03:41:14;;;;;;;;;;;23.10;43.10;;;;;;3054669;19;4640;-30
2024/04/13 03:42:14;;;;;;;;;;;23.10;43.00;;;;;;3044692;19;4692;-34
2024/04/13 03:43:15;;;;;;;;;;;23.10;42.90;;;;;;3047499;19;4902;-34
2024/04/13 03:44:16;;;;;;;;;;;23.10;42.90;;;;;;3054147;19;4680;-32
2024/04/13 03:45:16;;;;;;;;;;;23.10;42.90;;;;;;3033021;19;4572;-31
2024/04/13 03:46:17;;;;;;;;;;;23.10;42.90;;;;;;3054454;19;4777;-34
2024/04/13 03:47:18;;;;;;;;;;;23.10;42.90;;;;;;3054799;19;4630;-34
2024/04/13 03:48:18;;;;;;;;;;;23.10;42.90;;;;;;3032634;19;4586;-33
2024/04/13 03:49:19;;;;;;;;;;;23.10;42.90;;;;;;3054056;19;4635;-32
2024/04/13 03:50:19;;;;;;;;;;;23.10;42.90;;;;;;3032561;19;4804;-31
2024/04/13 03:51:20;;;;;;;;;;;23.10;42.90;;;;;;3054703;19;4686;-32
2024/04/13 03:52:21;;;;;;;;;;;23.10;42.90;;;;;;3054331;19;4632;-35
2024/04/13 03:53:21;;;;;;;;;;;23.10;42.90;;;;;;3033373;19;4478;-33
2024/04/13 03:54:22;;;;;;;;;;;23.10;42.90;;;;;;3054632;19;4660;-30
2024/04/13 03:55:23;;;;;;;;;;;23.10;43.00;;;;;;3054328;19;4685;-31
2024/04/13 03:56:23;;;;;;;;;;;23.10;42.90;;;;;;3031548;19;4570;-30
2024/04/13 03:57:24;;;;;;;;;;;23.10;42.90;;;;;;3053289;19;4785;-33
2024/04/13 03:58:25;;;;;;;;;;;23.10;42.90;;;;;;3032120;19;4671;-32
2024/04/13 03:59:25;;;;;;;;;;;23.10;42.80;;;;;;3052463;19;4663;-35
2024/04/13 04:00:26;;;;;;;;;;;23.20;42.80;;;;;;3052838;19;4740;-31
2024/04/13 04:01:27;;;;;;;;;;;23.20;42.70;;;;;;3032216;19;4477;-34
2024/04/13 04:02:27;;;;;;;;;;;23.30;42.60;;;;;;3054756;19;4725;-31
2024/04/13 04:03:28;;;;;;;;;;;23.30;42.60;;;;;;3053565;19;4658;-33
2024/04/13 04:04:30;;;;;;;;;;;23.30;42.50;;;;;;3032394;19;4782;-34
2024/04/13 04:05:30;;;;;;;;;;;23.30;42.30;;;;;;3054424;19;4685;-31
2024/04/13 04:06:31;;;;;;;;;;;23.30;42.30;;;;;;3032685;19;4616;-30
2024/04/13 04:07:32;;;;;;;;;;;23.30;42.20;;;;;;3054271;19;4719;-32
2024/04/13 04:08:33;;;;;;;;;;;23.40;42.30;;;;;;3053362;19;4724;-32
2024/04/13 04:09:34;;;;;;;;;;;23.40;42.20;;;;;;3032776;19;4588;-34
2024/04/13 04:10:35;;;;;;;;;;;23.40;42.20;;;;;;3054220;19;4845;-32
2024/04/13 04:11:36;;;;;;;;;;;23.40;42.20;;;;;;3033032;19;4771;-37
2024/04/13 04:12:36;;;;;;;;;;;23.40;42.10;;;;;;3053436;19;4673;-32
2024/04/13 04:13:37;;;;;;;;;;;23.40;42.10;;;;;;3054075;19;4715;-33
2024/04/13 04:14:38;;;;;;;;;;;23.40;42.10;;;;;;3031488;19;4750;-30
2024/04/13 04:15:38;;;;;;;;;;;23.40;42.10;;;;;;3052835;19;4639;-32
2024/04/13 04:16:39;;;;;;;;;;;23.40;42.10;;;;;;3054985;19;4632;-33
2024/04/13 04:17:40;;;;;;;;;;;23.40;42.10;;;;;;3031934;19;4614;-32
2024/04/13 04:18:43;;;;;;;;;;;23.40;42.10;;;;;;3053822;19;4632;-35
2024/04/13 04:19:44;;;;;;;;;;;23.40;42.20;;;;;;3032967;19;4661;-30
2024/04/13 04:20:47;;;;;;;;;;;23.40;42.10;;;;;;3053022;19;4591;-33
2024/04/13 04:21:48;;;;;;;;;;;23.40;42.10;;;;;;3054739;19;4815;-35
2024/04/13 04:22:50;;;;;;;;;;;23.40;42.10;;;;;;3032706;19;4631;-31
2024/04/13 04:23:51;;;;;;;;;;;23.40;42.10;;;;;;3053820;19;4661;-29
2024/04/13 04:24:53;;;;;;;;;;;23.40;42.10;;;;;;3055159;19;4658;-31
2024/04/13 04:25:53;;;;;;;;;;;23.40;42.10;;;;;;3033219;19;4488;-33
2024/04/13 04:26:54;;;;;;;;;;;23.40;42.10;;;;;;3054633;19;4758;-34
2024/04/13 04:27:55;;;;;;;;;;;23.40;42.10;;;;;;3032208;19;4615;-35
2024/04/13 04:28:55;;;;;;;;;;;23.40;42.10;;;;;;3053688;19;4699;-33
2024/04/13 04:29:56;;;;;;;;;;;24.10;42.60;;;;;;3051298;19;4686;-31
2024/04/13 04:31:09;;;;;;;;;;;23.40;42.10;;;;;;3032449;19;4730;-33
2024/04/13 04:32:10;;;;;;;;;;;23.40;42.10;;;;;;3052897;19;4794;-34
2024/04/13 04:33:12;;;;;;;;;;;23.40;42.10;;;;;;3033162;19;4532;-30
2024/04/13 04:34:13;;;;;;;;;;;23.40;42.20;;;;;;3053457;19;4625;-33
2024/04/13 04:35:14;;;;;;;;;;;23.40;42.10;;;;;;3053898;19;4811;-31
2024/04/13 04:36:15;;;;;;;;;;;23.30;42.20;;;;;;3032432;19;4637;-33
2024/04/13 04:37:15;;;;;;;;;;;23.40;42.10;;;;;;3053508;19;4771;-34
2024/04/13 04:38:16;;;;;;;;;;;23.30;42.10;;;;;;3030105;19;4726;-31
2024/04/13 04:39:17;;;;;;;;;;;23.30;42.10;;;;;;3053951;19;4737;-33
2024/04/13 04:40:18;;;;;;;;;;;23.30;42.20;;;;;;3052893;19;4705;-34
2024/04/13 04:41:18;;;;;;;;;;;23.30;42.20;;;;;;3031743;19;4754;-32
2024/04/13 04:42:19;;;;;;;;;;;23.30;42.20;;;;;;3054281;19;4741;-33
2024/04/13 04:43:20;;;;;;;;;;;23.30;42.10;;;;;;3052667;19;4740;-35
2024/04/13 04:44:20;;;;;;;;;;;23.30;42.20;;;;;;3032514;19;4516;-30
2024/04/13 04:45:21;;;;;;;;;;;23.30;42.20;;;;;;3052516;19;4830;-32
2024/04/13 04:46:22;;;;;;;;;;;23.30;42.20;;;;;;3032129;19;4803;-33
2024/04/13 04:47:22;;;;;;;;;;;23.30;42.20;;;;;;3053592;19;4661;-31
2024/04/13 04:48:24;;;;;;;;;;;23.30;42.90;;;;;;3052057;19;4694;-33
2024/04/13 04:49:24;;;;;;;;;;;23.30;42.30;;;;;;3033307;19;4496;-31
2024/04/13 04:50:26;;;;;;;;;;;23.30;42.20;;;;;;3052401;19;4700;-33
2024/04/13 04:51:28;;;;;;;;;;;23.30;42.20;;;;;;3053186;19;4698;-30
2024/04/13 04:52:28;;;;;;;;;;;23.30;42.20;;;;;;3032684;19;4537;-33
2024/04/13 04:53:29;;;;;;;;;;;23.30;42.30;;;;;;3052982;19;4879;-32
2024/04/13 04:54:29;;;;;;;;;;;23.20;42.20;;;;;;3032020;19;4870;-34
2024/04/13 04:55:30;;;;;;;;;;;23.20;42.30;;;;;;3051274;19;4889;-32
2024/04/13 04:56:31;;;;;;;;;;;23.20;42.30;;;;;;3051871;19;4679;-31
2024/04/13 04:57:31;;;;;;;;;;;23.20;42.30;;;;;;3031319;19;4590;-32
2024/04/13 04:58:32;;;;;;;;;;;23.20;42.40;;;;;;3053974;19;4704;-32
2024/04/13 04:59:33;;;;;;;;;;;23.10;42.30;;;;;;3054008;19;4665;-33
2024/04/13 05:00:34;;;;;;;;;;;23.20;42.40;;;;;;3030732;19;21075;-30
2024/04/13 05:01:34;;;;;;;;;;;23.10;42.40;;;;;;3053941;19;4643;-32
2024/04/13 05:02:35;;;;;;;;;;;23.10;42.30;;;;;;3032301;19;4694;-30
2024/04/13 05:03:36;;;;;;;;;;;23.10;42.40;;;;;;3053403;19;4730;-31
2024/04/13 05:04:36;;;;;;;;;;;23.10;42.50;;;;;;3053830;19;4645;-33
2024/04/13 05:05:37;;;;;;;;;;;23.10;42.50;;;;;;3031167;19;4593;-34
2024/04/13 05:06:38;;;;;;;;;;;23.10;42.50;;;;;;3052551;19;4708;-25
2024/04/13 05:07:38;;;;;;;;;;;23.00;42.50;;;;;;3031906;19;4725;-25
2024/04/13 05:08:39;;;;;;;;;;;23.00;42.50;;;;;;3052713;19;4755;-24
2024/04/13 05:09:39;;;;;;;;;;;23.10;42.60;;;;;;3051179;19;4628;-26
2024/04/13 05:10:40;;;;;;;;;;;23.10;42.50;;;;;;3031729;19;4938;-25
2024/04/13 05:11:41;;;;;;;;;;;23.10;42.40;;;;;;3052940;19;4718;-25
2024/04/13 05:12:41;;;;;;;;;;;23.10;42.30;;;;;;3051628;19;4744;-26
2024/04/13 05:13:42;;;;;;;;;;;23.20;42.30;;;;;;3032372;19;4604;-24
2024/04/13 05:14:43;;;;;;;;;;;23.20;42.20;;;;;;3050888;19;4645;-24
2024/04/13 05:15:43;;;;;;;;;;;23.20;42.30;;;;;;3032129;19;4724;-24
2024/04/13 05:16:44;;;;;;;;;;;23.20;42.30;;;;;;3051867;19;4666;-25
2024/04/13 05:17:45;;;;;;;;;;;23.20;42.50;;;;;;3051805;19;4774;-26
2024/04/13 05:18:46;;;;;;;;;;;23.20;42.50;;;;;;3025984;19;4753;-25
2024/04/13 05:19:47;;;;;;;;;;;23.20;42.60;;;;;;3049908;19;4850;-24
2024/04/13 05:20:47;;;;;;;;;;;23.20;42.60;;;;;;3049009;19;4846;-23
2024/04/13 05:21:48;;;;;;;;;;;23.20;42.60;;;;;;3031906;19;4687;-24
2024/04/13 05:22:49;;;;;;;;;;;23.20;42.60;;;;;;3053334;19;4692;-24
2024/04/13 05:23:49;;;;;;;;;;;23.20;42.50;;;;;;3030651;19;4694;-24
2024/04/13 05:24:50;;;;;;;;;;;23.20;42.50;;;;;;3051246;19;4713;-23
2024/04/13 05:25:51;;;;;;;;;;;23.20;42.30;;;;;;3051710;19;4708;-25
2024/04/13 05:26:55;;;;;;;;;;;23.20;42.30;;;;;;3032085;19;4645;-31
2024/04/13 05:27:56;;;;;;;;;;;23.20;42.40;;;;;;3051795;19;4654;-30
2024/04/13 05:28:56;;;;;;;;;;;23.20;42.30;;;;;;3028810;19;4806;-34
2024/04/13 05:30:02;;;;;;;;;;;23.20;42.30;;;;;;3053911;19;4614;-34
2024/04/13 05:31:09;;;;;;;;;;;23.20;42.40;;;;;;3050275;19;4836;-33
2024/04/13 05:32:09;;;;;;;;;;;23.20;42.30;;;;;;3027681;19;5293;-33
2024/04/13 05:33:10;;;;;;;;;;;23.20;42.40;;;;;;3053738;19;1192;-34
2024/04/13 05:34:10;;;;;;;;;;;23.20;42.40;;;;;;3052701;19;4626;-32
2024/04/13 05:35:12;;;;;;;;;;;23.20;42.40;;;;;;3031696;19;4605;-33
2024/04/13 05:36:13;;;;;;;;;;;23.10;42.30;;;;;;3053215;19;4669;-32
2024/04/13 05:37:13;;;;;;;;;;;23.10;42.40;;;;;;3032487;19;4455;-35
2024/04/13 05:38:14;;;;;;;;;;;23.20;42.40;;;;;;3053887;19;4691;-31
2024/04/13 05:39:15;;;;;;;;;;;23.10;42.40;;;;;;3049439;19;5045;-32
2024/04/13 05:40:15;;;;;;;;;;;23.10;42.50;;;;;;3030525;19;4640;-31
2024/04/13 05:41:16;;;;;;;;;;;23.10;42.40;;;;;;3052873;19;4721;-30
2024/04/13 05:42:17;;;;;;;;;;;23.10;42.50;;;;;;3031552;19;4687;-34
2024/04/13 05:43:17;;;;;;;;;;;23.10;42.60;;;;;;3052825;19;4812;-32
2024/04/13 05:44:18;;;;;;;;;;;23.10;42.60;;;;;;3050343;19;4666;-34
2024/04/13 05:45:19;;;;;;;;;;;23.10;42.60;;;;;;3031586;19;4501;-31
2024/04/13 05:46:19;;;;;;;;;;;23.10;42.70;;;;;;3053198;19;4671;-32
2024/04/13 05:47:20;;;;;;;;;;;23.00;42.70;;;;;;3052387;19;4843;-24
2024/04/13 05:48:20;;;;;;;;;;;23.00;42.70;;;;;;3032613;19;4616;-24
2024/04/13 05:49:21;;;;;;;;;;;23.00;42.80;;;;;;3053464;19;4649;-24
2024/04/13 05:50:22;;;;;;;;;;;23.00;42.90;;;;;;3032417;19;4681;-24
2024/04/13 05:51:22;;;;;;;;;;;23.00;42.80;;;;;;3053856;19;4704;-24
2024/04/13 05:52:23;;;;;;;;;;;23.00;42.80;;;;;;3053949;19;4742;-25
2024/04/13 05:53:24;;;;;;;;;;;23.00;42.80;;;;;;3032308;19;4544;-24
2024/04/13 05:54:25;;;;;;;;;;;23.00;42.80;;;;;;3050472;19;4794;-24
2024/04/13 05:55:25;;;;;;;;;;;23.00;42.80;;;;;;3047126;19;4728;-24
2024/04/13 05:56:26;;;;;;;;;;;23.00;42.80;;;;;;3030624;19;4616;-31
2024/04/13 05:57:28;;;;;;;;;;;23.10;42.60;;;;;;3050169;19;4724;-25
2024/04/13 05:58:28;;;;;;;;;;;23.10;42.70;;;;;;3030691;19;4651;-24
2024/04/13 05:59:29;;;;;;;;;;;23.20;42.60;;;;;;3051491;19;4718;-24
2024/04/13 06:00:30;;;;;;;;;;;23.20;42.60;;;;;;3053108;19;4850;-24